sensor_id;sensor_type;location;lat;lon;timestamp;P1;durP1;ratioP1;P2;durP2;ratioP2
26038;SDS011;13815;52.374;4.882;2022-09-16T00:01:23;2.05;;;1.50;;
26038;SDS011;13815;52.374;4.882;2022-09-16T00:03:52;12.65;;;2.03;;
26038;SDS011;13815;52.374;4.882;2022-09-16T00:06:19;2.83;;;1.48;;
26038;SDS011;13815;52.374;4.882;2022-09-16T00:08:47;4.20;;;1.35;;
26038;SDS011;13815;52.374;4.882;2022-09-16T00:11:13;6.78;;;1.63;;
26038;SDS011;13815;52.374;4.882;2022-09-16T00:13:39;2.55;;;1.00;;
26038;SDS011;13815;52.374;4.882;2022-09-16T00:16:09;4.65;;;1.33;;
26038;SDS011;13815;52.374;4.882;2022-09-16T00:18:36;4.95;;;1.10;;
26038;SDS011;13815;52.374;4.882;2022-09-16T00:21:01;15.30;;;1.83;;
26038;SDS011;13815;52.374;4.882;2022-09-16T00:23:31;31.67;;;2.60;;
26038;SDS011;13815;52.374;4.882;2022-09-16T00:25:56;4.85;;;0.82;;
26038;SDS011;13815;52.374;4.882;2022-09-16T00:28:24;11.30;;;1.13;;
26038;SDS011;13815;52.374;4.882;2022-09-16T00:30:50;2.20;;;0.50;;
26038;SDS011;13815;52.374;4.882;2022-09-16T00:33:15;4.28;;;0.70;;
26038;SDS011;13815;52.374;4.882;2022-09-16T00:35:41;10.35;;;0.85;;
26038;SDS011;13815;52.374;4.882;2022-09-16T00:38:07;24.77;;;1.92;;
26038;SDS011;13815;52.374;4.882;2022-09-16T00:40:33;1.60;;;0.40;;
26038;SDS011;13815;52.374;4.882;2022-09-16T00:42:58;12.90;;;1.20;;
26038;SDS011;13815;52.374;4.882;2022-09-16T00:45:24;10.95;;;0.95;;
26038;SDS011;13815;52.374;4.882;2022-09-16T00:47:58;2.95;;;0.70;;
26038;SDS011;13815;52.374;4.882;2022-09-16T00:50:31;16.60;;;1.30;;
26038;SDS011;13815;52.374;4.882;2022-09-16T00:53:05;3.30;;;0.88;;
26038;SDS011;13815;52.374;4.882;2022-09-16T00:55:33;18.60;;;1.50;;
26038;SDS011;13815;52.374;4.882;2022-09-16T00:58:03;11.02;;;1.77;;
26038;SDS011;13815;52.374;4.882;2022-09-16T01:00:37;14.48;;;1.27;;
26038;SDS011;13815;52.374;4.882;2022-09-16T01:03:03;6.97;;;1.23;;
26038;SDS011;13815;52.374;4.882;2022-09-16T01:05:29;3.60;;;0.73;;
26038;SDS011;13815;52.374;4.882;2022-09-16T01:07:54;28.08;;;2.03;;
26038;SDS011;13815;52.374;4.882;2022-09-16T01:10:21;4.28;;;0.80;;
26038;SDS011;13815;52.374;4.882;2022-09-16T01:12:54;8.93;;;1.33;;
26038;SDS011;13815;52.374;4.882;2022-09-16T01:15:21;19.98;;;1.50;;
26038;SDS011;13815;52.374;4.882;2022-09-16T01:28:49;38.13;;;3.15;;
26038;SDS011;13815;52.374;4.882;2022-09-16T01:34:09;28.75;;;2.50;;
26038;SDS011;13815;52.374;4.882;2022-09-16T01:36:59;5.05;;;1.10;;
26038;SDS011;13815;52.374;4.882;2022-09-16T01:42:33;25.42;;;2.28;;
26038;SDS011;13815;52.374;4.882;2022-09-16T01:50:52;3.15;;;0.70;;
26038;SDS011;13815;52.374;4.882;2022-09-16T01:53:26;24.02;;;2.35;;
26038;SDS011;13815;52.374;4.882;2022-09-16T01:55:56;2.95;;;0.50;;
26038;SDS011;13815;52.374;4.882;2022-09-16T01:58:32;1.05;;;0.30;;
26038;SDS011;13815;52.374;4.882;2022-09-16T02:01:03;9.38;;;1.20;;
26038;SDS011;13815;52.374;4.882;2022-09-16T02:03:33;7.13;;;0.93;;
26038;SDS011;13815;52.374;4.882;2022-09-16T02:06:11;16.83;;;1.65;;
26038;SDS011;13815;52.374;4.882;2022-09-16T02:08:45;16.52;;;1.35;;
26038;SDS011;13815;52.374;4.882;2022-09-16T02:11:15;14.27;;;1.63;;
26038;SDS011;13815;52.374;4.882;2022-09-16T02:13:46;13.55;;;1.75;;
26038;SDS011;13815;52.374;4.882;2022-09-16T02:16:16;18.90;;;1.92;;
26038;SDS011;13815;52.374;4.882;2022-09-16T02:18:45;6.13;;;1.05;;
26038;SDS011;13815;52.374;4.882;2022-09-16T02:21:16;28.38;;;2.33;;
26038;SDS011;13815;52.374;4.882;2022-09-16T02:23:44;6.13;;;1.10;;
26038;SDS011;13815;52.374;4.882;2022-09-16T02:26:11;5.30;;;1.20;;
26038;SDS011;13815;52.374;4.882;2022-09-16T02:28:40;37.33;;;3.58;;
26038;SDS011;13815;52.374;4.882;2022-09-16T02:31:07;9.18;;;1.25;;
26038;SDS011;13815;52.374;4.882;2022-09-16T02:33:39;8.55;;;0.85;;
26038;SDS011;13815;52.374;4.882;2022-09-16T02:36:05;29.15;;;2.53;;
26038;SDS011;13815;52.374;4.882;2022-09-16T02:38:34;9.57;;;1.25;;
26038;SDS011;13815;52.374;4.882;2022-09-16T02:41:11;13.60;;;1.20;;
26038;SDS011;13815;52.374;4.882;2022-09-16T02:43:41;4.05;;;0.70;;
26038;SDS011;13815;52.374;4.882;2022-09-16T02:56:36;2.33;;;0.55;;
26038;SDS011;13815;52.374;4.882;2022-09-16T02:59:04;5.53;;;1.05;;
26038;SDS011;13815;52.374;4.882;2022-09-16T03:01:31;6.07;;;0.80;;
26038;SDS011;13815;52.374;4.882;2022-09-16T03:03:58;12.23;;;1.33;;
26038;SDS011;13815;52.374;4.882;2022-09-16T03:06:24;2.95;;;0.70;;
26038;SDS011;13815;52.374;4.882;2022-09-16T03:08:50;4.90;;;0.90;;
26038;SDS011;13815;52.374;4.882;2022-09-16T03:22:01;14.98;;;1.30;;
26038;SDS011;13815;52.374;4.882;2022-09-16T03:25:08;14.13;;;1.58;;
26038;SDS011;13815;52.374;4.882;2022-09-16T03:27:43;19.40;;;1.30;;
26038;SDS011;13815;52.374;4.882;2022-09-16T03:30:14;10.32;;;0.90;;
26038;SDS011;13815;52.374;4.882;2022-09-16T03:32:42;16.88;;;1.13;;
26038;SDS011;13815;52.374;4.882;2022-09-16T03:35:14;6.82;;;0.75;;
26038;SDS011;13815;52.374;4.882;2022-09-16T03:37:43;13.07;;;0.80;;
26038;SDS011;13815;52.374;4.882;2022-09-16T03:40:11;8.90;;;1.00;;
26038;SDS011;13815;52.374;4.882;2022-09-16T03:42:38;2.30;;;0.28;;
26038;SDS011;13815;52.374;4.882;2022-09-16T03:45:04;7.82;;;0.95;;
26038;SDS011;13815;52.374;4.882;2022-09-16T03:47:30;6.07;;;0.30;;
26038;SDS011;13815;52.374;4.882;2022-09-16T03:49:56;8.25;;;0.57;;
26038;SDS011;13815;52.374;4.882;2022-09-16T03:52:21;15.07;;;1.02;;
26038;SDS011;13815;52.374;4.882;2022-09-16T03:54:47;6.95;;;0.73;;
26038;SDS011;13815;52.374;4.882;2022-09-16T03:57:12;14.50;;;1.33;;
26038;SDS011;13815;52.374;4.882;2022-09-16T03:59:37;6.93;;;0.55;;
26038;SDS011;13815;52.374;4.882;2022-09-16T04:02:03;25.10;;;2.72;;
26038;SDS011;13815;52.374;4.882;2022-09-16T04:04:28;2.17;;;0.28;;
26038;SDS011;13815;52.374;4.882;2022-09-16T04:06:53;5.95;;;0.45;;
26038;SDS011;13815;52.374;4.882;2022-09-16T04:09:19;9.77;;;1.05;;
26038;SDS011;13815;52.374;4.882;2022-09-16T04:11:44;13.43;;;1.02;;
26038;SDS011;13815;52.374;4.882;2022-09-16T04:14:09;27.95;;;2.53;;
26038;SDS011;13815;52.374;4.882;2022-09-16T04:16:35;6.07;;;0.65;;
26038;SDS011;13815;52.374;4.882;2022-09-16T04:19:00;12.95;;;0.88;;
26038;SDS011;13815;52.374;4.882;2022-09-16T04:21:26;18.80;;;1.40;;
26038;SDS011;13815;52.374;4.882;2022-09-16T04:23:51;8.15;;;0.80;;
26038;SDS011;13815;52.374;4.882;2022-09-16T04:26:18;12.45;;;0.95;;
26038;SDS011;13815;52.374;4.882;2022-09-16T04:28:44;12.02;;;0.80;;
26038;SDS011;13815;52.374;4.882;2022-09-16T04:31:11;7.72;;;0.90;;
26038;SDS011;13815;52.374;4.882;2022-09-16T04:33:37;12.65;;;1.55;;
26038;SDS011;13815;52.374;4.882;2022-09-16T04:38:41;17.13;;;1.73;;
26038;SDS011;13815;52.374;4.882;2022-09-16T04:41:08;15.80;;;1.58;;
26038;SDS011;13815;52.374;4.882;2022-09-16T04:43:35;6.15;;;0.82;;
26038;SDS011;13815;52.374;4.882;2022-09-16T04:46:01;11.40;;;1.45;;
26038;SDS011;13815;52.374;4.882;2022-09-16T04:48:27;13.15;;;1.33;;
26038;SDS011;13815;52.374;4.882;2022-09-16T04:50:52;3.15;;;0.50;;
26038;SDS011;13815;52.374;4.882;2022-09-16T04:53:18;17.25;;;1.77;;
26038;SDS011;13815;52.374;4.882;2022-09-16T04:55:44;16.65;;;1.75;;
26038;SDS011;13815;52.374;4.882;2022-09-16T04:58:10;4.80;;;0.68;;
26038;SDS011;13815;52.374;4.882;2022-09-16T05:00:36;13.20;;;1.20;;
26038;SDS011;13815;52.374;4.882;2022-09-16T05:03:01;8.02;;;1.17;;
26038;SDS011;13815;52.374;4.882;2022-09-16T05:05:27;12.02;;;1.20;;
26038;SDS011;13815;52.374;4.882;2022-09-16T05:07:52;19.08;;;1.75;;
26038;SDS011;13815;52.374;4.882;2022-09-16T05:10:17;15.30;;;2.03;;
26038;SDS011;13815;52.374;4.882;2022-09-16T05:12:52;10.63;;;0.80;;
26038;SDS011;13815;52.374;4.882;2022-09-16T05:15:18;17.83;;;1.50;;
26038;SDS011;13815;52.374;4.882;2022-09-16T05:17:44;3.55;;;0.55;;
26038;SDS011;13815;52.374;4.882;2022-09-16T05:20:09;7.40;;;1.05;;
26038;SDS011;13815;52.374;4.882;2022-09-16T05:22:35;7.68;;;1.17;;
26038;SDS011;13815;52.374;4.882;2022-09-16T05:25:01;6.65;;;1.05;;
26038;SDS011;13815;52.374;4.882;2022-09-16T05:27:31;16.48;;;1.48;;
26038;SDS011;13815;52.374;4.882;2022-09-16T05:29:58;8.27;;;1.17;;
26038;SDS011;13815;52.374;4.882;2022-09-16T05:32:24;15.18;;;1.52;;
26038;SDS011;13815;52.374;4.882;2022-09-16T05:34:49;14.25;;;1.42;;
26038;SDS011;13815;52.374;4.882;2022-09-16T05:37:15;6.68;;;1.05;;
26038;SDS011;13815;52.374;4.882;2022-09-16T05:39:41;4.72;;;0.70;;
26038;SDS011;13815;52.374;4.882;2022-09-16T05:42:07;6.60;;;0.95;;
26038;SDS011;13815;52.374;4.882;2022-09-16T05:44:33;5.07;;;0.82;;
26038;SDS011;13815;52.374;4.882;2022-09-16T05:46:59;10.02;;;1.05;;
26038;SDS011;13815;52.374;4.882;2022-09-16T05:49:24;25.67;;;2.25;;
26038;SDS011;13815;52.374;4.882;2022-09-16T05:51:50;1.95;;;0.32;;
26038;SDS011;13815;52.374;4.882;2022-09-16T05:54:19;10.35;;;0.93;;
26038;SDS011;13815;52.374;4.882;2022-09-16T05:56:45;3.78;;;0.68;;
26038;SDS011;13815;52.374;4.882;2022-09-16T05:59:11;8.82;;;1.38;;
26038;SDS011;13815;52.374;4.882;2022-09-16T06:01:38;14.25;;;1.25;;
26038;SDS011;13815;52.374;4.882;2022-09-16T06:04:04;4.55;;;0.85;;
26038;SDS011;13815;52.374;4.882;2022-09-16T06:06:40;19.02;;;2.00;;
26038;SDS011;13815;52.374;4.882;2022-09-16T06:09:19;7.63;;;1.25;;
26038;SDS011;13815;52.374;4.882;2022-09-16T06:11:46;14.00;;;0.98;;
26038;SDS011;13815;52.374;4.882;2022-09-16T06:14:13;13.20;;;1.08;;
26038;SDS011;13815;52.374;4.882;2022-09-16T06:16:39;5.68;;;0.77;;
26038;SDS011;13815;52.374;4.882;2022-09-16T06:19:06;23.85;;;1.98;;
26038;SDS011;13815;52.374;4.882;2022-09-16T06:21:34;1.45;;;0.20;;
26038;SDS011;13815;52.374;4.882;2022-09-16T06:24:00;5.55;;;0.70;;
26038;SDS011;13815;52.374;4.882;2022-09-16T06:26:27;20.38;;;1.95;;
26038;SDS011;13815;52.374;4.882;2022-09-16T06:28:53;5.90;;;0.73;;
26038;SDS011;13815;52.374;4.882;2022-09-16T06:31:20;14.50;;;1.25;;
26038;SDS011;13815;52.374;4.882;2022-09-16T06:33:47;6.57;;;0.93;;
26038;SDS011;13815;52.374;4.882;2022-09-16T06:36:24;8.88;;;1.17;;
26038;SDS011;13815;52.374;4.882;2022-09-16T06:38:51;17.90;;;1.50;;
26038;SDS011;13815;52.374;4.882;2022-09-16T06:41:17;6.68;;;0.90;;
26038;SDS011;13815;52.374;4.882;2022-09-16T06:43:43;9.52;;;1.05;;
26038;SDS011;13815;52.374;4.882;2022-09-16T06:46:13;22.80;;;2.03;;
26038;SDS011;13815;52.374;4.882;2022-09-16T06:48:41;5.88;;;0.82;;
26038;SDS011;13815;52.374;4.882;2022-09-16T06:51:11;33.00;;;3.33;;
26038;SDS011;13815;52.374;4.882;2022-09-16T06:53:38;16.35;;;2.03;;
26038;SDS011;13815;52.374;4.882;2022-09-16T06:56:06;7.00;;;0.93;;
26038;SDS011;13815;52.374;4.882;2022-09-16T06:58:34;3.53;;;0.60;;
26038;SDS011;13815;52.374;4.882;2022-09-16T07:01:04;20.27;;;2.35;;
26038;SDS011;13815;52.374;4.882;2022-09-16T07:03:31;19.40;;;1.60;;
26038;SDS011;13815;52.374;4.882;2022-09-16T07:05:57;5.70;;;0.75;;
26038;SDS011;13815;52.374;4.882;2022-09-16T07:08:32;5.05;;;0.73;;
26038;SDS011;13815;52.374;4.882;2022-09-16T07:11:00;25.88;;;2.35;;
26038;SDS011;13815;52.374;4.882;2022-09-16T07:13:29;14.23;;;1.27;;
26038;SDS011;13815;52.374;4.882;2022-09-16T07:15:58;17.95;;;1.40;;
26038;SDS011;13815;52.374;4.882;2022-09-16T07:18:28;4.47;;;0.55;;
26038;SDS011;13815;52.374;4.882;2022-09-16T07:21:05;9.63;;;1.48;;
26038;SDS011;13815;52.374;4.882;2022-09-16T07:23:33;16.15;;;1.45;;
26038;SDS011;13815;52.374;4.882;2022-09-16T07:26:00;14.82;;;1.38;;
26038;SDS011;13815;52.374;4.882;2022-09-16T07:28:27;17.52;;;1.75;;
26038;SDS011;13815;52.374;4.882;2022-09-16T07:30:52;2.80;;;0.50;;
26038;SDS011;13815;52.374;4.882;2022-09-16T07:33:19;11.68;;;1.50;;
26038;SDS011;13815;52.374;4.882;2022-09-16T07:35:44;16.48;;;1.75;;
26038;SDS011;13815;52.374;4.882;2022-09-16T07:38:09;21.23;;;2.67;;
26038;SDS011;13815;52.374;4.882;2022-09-16T07:40:35;9.23;;;1.08;;
26038;SDS011;13815;52.374;4.882;2022-09-16T07:43:00;31.88;;;2.70;;
26038;SDS011;13815;52.374;4.882;2022-09-16T07:45:26;7.55;;;0.82;;
26038;SDS011;13815;52.374;4.882;2022-09-16T07:47:51;28.77;;;3.10;;
26038;SDS011;13815;52.374;4.882;2022-09-16T07:50:17;25.67;;;2.55;;
26038;SDS011;13815;52.374;4.882;2022-09-16T07:52:42;4.03;;;0.77;;
26038;SDS011;13815;52.374;4.882;2022-09-16T07:55:08;10.05;;;1.55;;
26038;SDS011;13815;52.374;4.882;2022-09-16T07:57:34;11.82;;;1.67;;
26038;SDS011;13815;52.374;4.882;2022-09-16T07:59:59;2.97;;;0.82;;
26038;SDS011;13815;52.374;4.882;2022-09-16T08:02:24;13.52;;;1.77;;
26038;SDS011;13815;52.374;4.882;2022-09-16T08:04:50;10.52;;;1.48;;
26038;SDS011;13815;52.374;4.882;2022-09-16T08:07:15;9.40;;;2.53;;
26038;SDS011;13815;52.374;4.882;2022-09-16T08:09:41;8.13;;;0.85;;
26038;SDS011;13815;52.374;4.882;2022-09-16T08:12:06;19.30;;;3.50;;
26038;SDS011;13815;52.374;4.882;2022-09-16T08:14:34;7.60;;;1.75;;
26038;SDS011;13815;52.374;4.882;2022-09-16T08:17:00;7.65;;;1.60;;
26038;SDS011;13815;52.374;4.882;2022-09-16T08:19:27;13.63;;;1.85;;
26038;SDS011;13815;52.374;4.882;2022-09-16T08:21:52;3.97;;;1.15;;
26038;SDS011;13815;52.374;4.882;2022-09-16T08:24:18;13.20;;;1.58;;
26038;SDS011;13815;52.374;4.882;2022-09-16T08:26:44;11.77;;;1.98;;
26038;SDS011;13815;52.374;4.882;2022-09-16T08:29:09;4.20;;;1.38;;
26038;SDS011;13815;52.374;4.882;2022-09-16T08:31:35;12.57;;;1.05;;
26038;SDS011;13815;52.374;4.882;2022-09-16T08:34:01;9.63;;;1.42;;
26038;SDS011;13815;52.374;4.882;2022-09-16T08:36:26;5.45;;;1.75;;
26038;SDS011;13815;52.374;4.882;2022-09-16T08:38:53;14.77;;;1.95;;
26038;SDS011;13815;52.374;4.882;2022-09-16T08:44:17;12.13;;;2.75;;
26038;SDS011;13815;52.374;4.882;2022-09-16T08:47:00;15.43;;;2.25;;
26038;SDS011;13815;52.374;4.882;2022-09-16T08:49:42;1.90;;;0.68;;
26038;SDS011;13815;52.374;4.882;2022-09-16T08:52:30;9.35;;;1.63;;
26038;SDS011;13815;52.374;4.882;2022-09-16T08:54:57;2.92;;;1.00;;
26038;SDS011;13815;52.374;4.882;2022-09-16T08:57:25;10.75;;;2.05;;
26038;SDS011;13815;52.374;4.882;2022-09-16T08:59:53;8.10;;;1.58;;
26038;SDS011;13815;52.374;4.882;2022-09-16T09:05:08;2.70;;;1.15;;
26038;SDS011;13815;52.374;4.882;2022-09-16T09:10:21;2.65;;;1.02;;
26038;SDS011;13815;52.374;4.882;2022-09-16T09:12:52;7.72;;;1.10;;
26038;SDS011;13815;52.374;4.882;2022-09-16T09:15:28;4.05;;;1.30;;
26038;SDS011;13815;52.374;4.882;2022-09-16T09:23:26;9.25;;;1.60;;
26038;SDS011;13815;52.374;4.882;2022-09-16T09:33:51;10.20;;;1.13;;
26038;SDS011;13815;52.374;4.882;2022-09-16T09:40:01;11.73;;;1.70;;
26038;SDS011;13815;52.374;4.882;2022-09-16T09:43:07;12.70;;;1.67;;
26038;SDS011;13815;52.374;4.882;2022-09-16T09:45:35;8.52;;;2.03;;
26038;SDS011;13815;52.374;4.882;2022-09-16T09:48:15;7.18;;;2.40;;
26038;SDS011;13815;52.374;4.882;2022-09-16T09:50:45;5.72;;;1.95;;
26038;SDS011;13815;52.374;4.882;2022-09-16T09:53:13;17.38;;;3.17;;
26038;SDS011;13815;52.374;4.882;2022-09-16T09:55:51;3.70;;;1.73;;
26038;SDS011;13815;52.374;4.882;2022-09-16T09:58:39;9.15;;;2.35;;
26038;SDS011;13815;52.374;4.882;2022-09-16T10:01:07;4.03;;;2.25;;
26038;SDS011;13815;52.374;4.882;2022-09-16T10:03:33;8.23;;;2.10;;
26038;SDS011;13815;52.374;4.882;2022-09-16T10:05:58;8.77;;;2.38;;
26038;SDS011;13815;52.374;4.882;2022-09-16T10:08:26;4.35;;;2.53;;
26038;SDS011;13815;52.374;4.882;2022-09-16T10:10:54;2.42;;;1.65;;
26038;SDS011;13815;52.374;4.882;2022-09-16T10:13:25;7.65;;;2.38;;
26038;SDS011;13815;52.374;4.882;2022-09-16T10:16:05;1.55;;;1.10;;
26038;SDS011;13815;52.374;4.882;2022-09-16T10:18:36;7.18;;;2.25;;
26038;SDS011;13815;52.374;4.882;2022-09-16T10:21:03;8.95;;;2.50;;
26038;SDS011;13815;52.374;4.882;2022-09-16T10:23:34;13.32;;;1.80;;
26038;SDS011;13815;52.374;4.882;2022-09-16T10:28:28;3.53;;;2.05;;
26038;SDS011;13815;52.374;4.882;2022-09-16T10:30:54;18.95;;;3.05;;
26038;SDS011;13815;52.374;4.882;2022-09-16T10:35:59;4.97;;;2.20;;
26038;SDS011;13815;52.374;4.882;2022-09-16T10:38:32;2.67;;;1.50;;
26038;SDS011;13815;52.374;4.882;2022-09-16T10:43:44;6.18;;;1.35;;
26038;SDS011;13815;52.374;4.882;2022-09-16T10:48:39;2.40;;;1.20;;
26038;SDS011;13815;52.374;4.882;2022-09-16T10:51:05;8.05;;;2.28;;
26038;SDS011;13815;52.374;4.882;2022-09-16T10:53:51;1.13;;;0.55;;
26038;SDS011;13815;52.374;4.882;2022-09-16T10:56:31;6.93;;;1.45;;
26038;SDS011;13815;52.374;4.882;2022-09-16T10:59:01;3.50;;;1.65;;
26038;SDS011;13815;52.374;4.882;2022-09-16T11:12:35;1.77;;;1.02;;
26038;SDS011;13815;52.374;4.882;2022-09-16T11:23:26;8.52;;;2.42;;
26038;SDS011;13815;52.374;4.882;2022-09-16T11:33:56;27.70;;;16.20;;
26038;SDS011;13815;52.374;4.882;2022-09-16T11:44:27;38.85;;;23.65;;
26038;SDS011;13815;52.374;4.882;2022-09-16T11:47:26;33.75;;;23.05;;
26038;SDS011;13815;52.374;4.882;2022-09-16T11:57:43;44.10;;;24.50;;
26038;SDS011;13815;52.374;4.882;2022-09-16T12:00:14;27.40;;;22.65;;
26038;SDS011;13815;52.374;4.882;2022-09-16T12:02:51;32.88;;;23.67;;
26038;SDS011;13815;52.374;4.882;2022-09-16T12:05:22;33.90;;;24.55;;
26038;SDS011;13815;52.374;4.882;2022-09-16T12:10:32;31.75;;;23.95;;
26038;SDS011;13815;52.374;4.882;2022-09-16T12:13:04;32.05;;;23.67;;
26038;SDS011;13815;52.374;4.882;2022-09-16T12:15:42;35.47;;;24.77;;
26038;SDS011;13815;52.374;4.882;2022-09-16T12:18:10;35.75;;;25.05;;
26038;SDS011;13815;52.374;4.882;2022-09-16T12:20:44;41.25;;;25.58;;
26038;SDS011;13815;52.374;4.882;2022-09-16T12:23:18;40.95;;;25.40;;
26038;SDS011;13815;52.374;4.882;2022-09-16T12:26:00;41.95;;;25.42;;
26038;SDS011;13815;52.374;4.882;2022-09-16T12:28:49;48.75;;;25.77;;
26038;SDS011;13815;52.374;4.882;2022-09-16T12:34:29;36.60;;;24.27;;
26038;SDS011;13815;52.374;4.882;2022-09-16T12:37:11;55.38;;;26.10;;
26038;SDS011;13815;52.374;4.882;2022-09-16T12:39:39;40.55;;;25.38;;
26038;SDS011;13815;52.374;4.882;2022-09-16T12:58:53;53.85;;;26.88;;
26038;SDS011;13815;52.374;4.882;2022-09-16T13:04:31;44.45;;;24.60;;
26038;SDS011;13815;52.374;4.882;2022-09-16T13:06:59;45.10;;;25.00;;
26038;SDS011;13815;52.374;4.882;2022-09-16T13:12:03;39.25;;;24.92;;
26038;SDS011;13815;52.374;4.882;2022-09-16T13:14:32;42.92;;;24.48;;
26038;SDS011;13815;52.374;4.882;2022-09-16T13:17:03;39.63;;;25.80;;
26038;SDS011;13815;52.374;4.882;2022-09-16T13:19:34;43.85;;;26.15;;
26038;SDS011;13815;52.374;4.882;2022-09-16T13:24:40;40.13;;;24.20;;
26038;SDS011;13815;52.374;4.882;2022-09-16T13:27:23;35.63;;;24.25;;
26038;SDS011;13815;52.374;4.882;2022-09-16T13:29:51;47.53;;;25.60;;
26038;SDS011;13815;52.374;4.882;2022-09-16T13:32:26;43.22;;;24.55;;
26038;SDS011;13815;52.374;4.882;2022-09-16T13:35:00;39.17;;;24.75;;
26038;SDS011;13815;52.374;4.882;2022-09-16T13:37:26;41.20;;;24.08;;
26038;SDS011;13815;52.374;4.882;2022-09-16T13:39:52;35.97;;;23.33;;
26038;SDS011;13815;52.374;4.882;2022-09-16T13:42:18;47.20;;;24.80;;
26038;SDS011;13815;52.374;4.882;2022-09-16T13:44:44;39.88;;;23.52;;
26038;SDS011;13815;52.374;4.882;2022-09-16T13:49:59;51.30;;;25.30;;
26038;SDS011;13815;52.374;4.882;2022-09-16T13:52:37;39.35;;;24.00;;
26038;SDS011;13815;52.374;4.882;2022-09-16T13:55:04;49.90;;;25.75;;
26038;SDS011;13815;52.374;4.882;2022-09-16T14:00:28;44.60;;;25.25;;
26038;SDS011;13815;52.374;4.882;2022-09-16T14:03:11;38.83;;;24.85;;
26038;SDS011;13815;52.374;4.882;2022-09-16T14:05:56;38.08;;;24.95;;
26038;SDS011;13815;52.374;4.882;2022-09-16T14:08:31;48.63;;;26.63;;
26038;SDS011;13815;52.374;4.882;2022-09-16T14:13:49;43.05;;;25.88;;
26038;SDS011;13815;52.374;4.882;2022-09-16T14:16:18;38.55;;;25.42;;
26038;SDS011;13815;52.374;4.882;2022-09-16T14:21:29;38.55;;;24.65;;
26038;SDS011;13815;52.374;4.882;2022-09-16T14:23:54;45.83;;;26.20;;
26038;SDS011;13815;52.374;4.882;2022-09-16T14:26:21;48.20;;;27.13;;
26038;SDS011;13815;52.374;4.882;2022-09-16T14:28:47;41.00;;;25.55;;
26038;SDS011;13815;52.374;4.882;2022-09-16T14:31:17;54.42;;;27.63;;
26038;SDS011;13815;52.374;4.882;2022-09-16T14:36:15;46.55;;;25.40;;
26038;SDS011;13815;52.374;4.882;2022-09-16T14:38:45;41.88;;;25.08;;
26038;SDS011;13815;52.374;4.882;2022-09-16T14:41:21;46.33;;;26.23;;
26038;SDS011;13815;52.374;4.882;2022-09-16T14:43:49;38.63;;;24.60;;
26038;SDS011;13815;52.374;4.882;2022-09-16T14:46:14;39.70;;;24.95;;
26038;SDS011;13815;52.374;4.882;2022-09-16T14:48:41;45.35;;;25.45;;
26038;SDS011;13815;52.374;4.882;2022-09-16T14:51:25;39.90;;;25.45;;
26038;SDS011;13815;52.374;4.882;2022-09-16T14:53:55;53.22;;;27.20;;
26038;SDS011;13815;52.374;4.882;2022-09-16T14:56:22;39.72;;;25.30;;
26038;SDS011;13815;52.374;4.882;2022-09-16T14:58:48;38.90;;;24.85;;
26038;SDS011;13815;52.374;4.882;2022-09-16T15:01:15;59.97;;;28.05;;
26038;SDS011;13815;52.374;4.882;2022-09-16T15:03:52;41.80;;;25.83;;
26038;SDS011;13815;52.374;4.882;2022-09-16T15:06:34;44.08;;;25.60;;
26038;SDS011;13815;52.374;4.882;2022-09-16T15:09:11;39.63;;;25.50;;
26038;SDS011;13815;52.374;4.882;2022-09-16T15:11:44;47.17;;;26.50;;
26038;SDS011;13815;52.374;4.882;2022-09-16T15:14:21;47.85;;;26.60;;
26038;SDS011;13815;52.374;4.882;2022-09-16T15:19:18;47.88;;;27.08;;
26038;SDS011;13815;52.374;4.882;2022-09-16T15:21:46;44.78;;;26.45;;
26038;SDS011;13815;52.374;4.882;2022-09-16T15:24:15;40.97;;;26.75;;
26038;SDS011;13815;52.374;4.882;2022-09-16T15:26:43;42.78;;;27.15;;
26038;SDS011;13815;52.374;4.882;2022-09-16T15:31:41;38.53;;;25.90;;
26038;SDS011;13815;52.374;4.882;2022-09-16T15:36:44;38.80;;;26.10;;
26038;SDS011;13815;52.374;4.882;2022-09-16T15:49:51;53.07;;;27.97;;
26038;SDS011;13815;52.374;4.882;2022-09-16T15:52:22;38.80;;;24.90;;
26038;SDS011;13815;52.374;4.882;2022-09-16T15:54:49;40.10;;;25.40;;
26038;SDS011;13815;52.374;4.882;2022-09-16T16:00:20;44.53;;;24.98;;
26038;SDS011;13815;52.374;4.882;2022-09-16T16:05:18;52.40;;;24.85;;
26038;SDS011;13815;52.374;4.882;2022-09-16T16:07:46;32.75;;;23.63;;
26038;SDS011;13815;52.374;4.882;2022-09-16T16:12:49;26.77;;;22.20;;
26038;SDS011;13815;52.374;4.882;2022-09-16T16:15:16;30.20;;;23.38;;
26038;SDS011;13815;52.374;4.882;2022-09-16T16:17:44;37.17;;;22.60;;
26038;SDS011;13815;52.374;4.882;2022-09-16T16:20:11;33.53;;;23.05;;
26038;SDS011;13815;52.374;4.882;2022-09-16T16:22:39;32.22;;;21.95;;
26038;SDS011;13815;52.374;4.882;2022-09-16T16:25:08;36.60;;;23.60;;
26038;SDS011;13815;52.374;4.882;2022-09-16T16:27:33;29.35;;;22.65;;
26038;SDS011;13815;52.374;4.882;2022-09-16T16:29:59;36.85;;;22.50;;
26038;SDS011;13815;52.374;4.882;2022-09-16T16:32:25;28.25;;;21.50;;
26038;SDS011;13815;52.374;4.882;2022-09-16T16:34:51;30.25;;;22.10;;
26038;SDS011;13815;52.374;4.882;2022-09-16T16:37:18;43.25;;;23.17;;
26038;SDS011;13815;52.374;4.882;2022-09-16T16:39:44;35.58;;;23.55;;
26038;SDS011;13815;52.374;4.882;2022-09-16T16:42:10;34.53;;;22.90;;
26038;SDS011;13815;52.374;4.882;2022-09-16T16:44:36;49.30;;;23.33;;
26038;SDS011;13815;52.374;4.882;2022-09-16T16:47:02;31.38;;;21.63;;
26038;SDS011;13815;52.374;4.882;2022-09-16T16:49:27;36.05;;;22.25;;
26038;SDS011;13815;52.374;4.882;2022-09-16T16:51:53;44.95;;;22.83;;
26038;SDS011;13815;52.374;4.882;2022-09-16T16:54:19;38.25;;;23.30;;
26038;SDS011;13815;52.374;4.882;2022-09-16T16:56:45;34.72;;;22.67;;
26038;SDS011;13815;52.374;4.882;2022-09-16T16:59:11;51.30;;;23.92;;
26038;SDS011;13815;52.374;4.882;2022-09-16T17:01:37;43.95;;;24.42;;
26038;SDS011;13815;52.374;4.882;2022-09-16T17:04:03;33.67;;;23.52;;
26038;SDS011;13815;52.374;4.882;2022-09-16T17:06:29;41.78;;;24.20;;
26038;SDS011;13815;52.374;4.882;2022-09-16T17:08:55;34.53;;;23.42;;
26038;SDS011;13815;52.374;4.882;2022-09-16T17:11:20;38.83;;;23.83;;
26038;SDS011;13815;52.374;4.882;2022-09-16T17:13:47;37.08;;;23.98;;
26038;SDS011;13815;52.374;4.882;2022-09-16T17:16:21;38.03;;;23.63;;
26038;SDS011;13815;52.374;4.882;2022-09-16T17:18:48;59.13;;;25.98;;
26038;SDS011;13815;52.374;4.882;2022-09-16T17:21:15;35.05;;;23.98;;
26038;SDS011;13815;52.374;4.882;2022-09-16T17:23:42;37.03;;;24.25;;
26038;SDS011;13815;52.374;4.882;2022-09-16T17:26:08;48.08;;;24.38;;
26038;SDS011;13815;52.374;4.882;2022-09-16T17:28:34;38.67;;;25.05;;
26038;SDS011;13815;52.374;4.882;2022-09-16T17:31:06;38.33;;;24.30;;
26038;SDS011;13815;52.374;4.882;2022-09-16T17:33:36;28.95;;;22.80;;
26038;SDS011;13815;52.374;4.882;2022-09-16T17:36:03;39.40;;;25.05;;
26038;SDS011;13815;52.374;4.882;2022-09-16T17:38:30;54.88;;;25.05;;
26038;SDS011;13815;52.374;4.882;2022-09-16T17:41:05;32.63;;;23.42;;
26038;SDS011;13815;52.374;4.882;2022-09-16T17:43:32;42.20;;;22.60;;
26038;SDS011;13815;52.374;4.882;2022-09-16T17:46:01;29.60;;;22.60;;
26038;SDS011;13815;52.374;4.882;2022-09-16T17:48:28;32.08;;;22.75;;
26038;SDS011;13815;52.374;4.882;2022-09-16T17:50:54;39.15;;;22.00;;
26038;SDS011;13815;52.374;4.882;2022-09-16T17:53:20;33.13;;;22.60;;
26038;SDS011;13815;52.374;4.882;2022-09-16T17:55:46;22.02;;;19.67;;
26038;SDS011;13815;52.374;4.882;2022-09-16T17:58:12;43.03;;;21.75;;
26038;SDS011;13815;52.374;4.882;2022-09-16T18:00:38;20.55;;;18.55;;
26038;SDS011;13815;52.374;4.882;2022-09-16T18:03:04;20.20;;;17.77;;